Terminal Aerodrome Forecast
Issued by NWS

Home | Current Version | Previous Version | Text Only | Print | Product List | Glossary On
Versions: 1 2 3 4 5 6 7 8 9 10 11 12 13 14 15 16 17 18 19 20 21 22
000
FTUS42 KILM 030526
TAFCRE
TAF
KCRE 030526Z 0306/0406 26005KT P6SM SKC
     FM031300 29006KT P6SM SCT060 SCT120 SCT250
     FM031800 23008KT P6SM VCTS SCT050CB BKN250
     FM032000 20007KT P6SM SCT050 BKN250=

USA.gov is the U.S. government's official web portal to all federal, state and local government web resources and services.